Time;durP1;ratioP1;P1;durP2;ratioP2;P2;SDS_P1;SDS_P2;PMS_P1;PMS_P2;Temp;Humidity;BMP_temperature;BMP_pressure;BME280_temperature;BME280_humidity;BME280_pressure;Samples;Min_cycle;Max_cycle;Signal;HPM_P1;HPM_P2
2022/04/22 00:01:02;;;;;;;3.17;2.15;;;;;;;9.45;50.97;101100.28;5064851;28;20025;-70
2022/04/22 00:03:27;;;;;;;2.30;1.52;;;;;;;9.42;51.21;101096.81;5066766;28;20084;-69
2022/04/22 00:05:53;;;;;;;2.97;1.90;;;;;;;9.28;51.18;101099.28;5066326;28;20090;-70
2022/04/22 00:08:18;;;;;;;3.28;1.67;;;;;;;9.28;51.37;101098.44;5066807;28;20025;-69
2022/04/22 00:13:28;;;;;;;3.05;1.75;;;;;;;9.23;51.61;101095.81;5066852;28;20063;-70
2022/04/22 00:15:53;;;;;;;3.45;1.60;;;;;;;9.12;51.59;101085.34;5066588;28;20017;-70
2022/04/22 00:18:19;;;;;;;2.78;1.63;;;;;;;9.12;51.84;101094.84;5066791;28;20047;-69
2022/04/22 00:20:44;;;;;;;2.97;1.63;;;;;;;9.00;52.03;101082.66;5066258;28;20021;-70
2022/04/22 00:23:09;;;;;;;2.90;1.83;;;;;;;9.01;52.08;101087.00;5066457;28;20085;-70
2022/04/22 00:25:34;;;;;;;3.10;1.83;;;;;;;8.95;52.19;101090.38;5048097;28;20021;-70
2022/04/22 00:28:00;;;;;;;4.95;1.90;;;;;;;8.90;52.50;101087.75;5066115;28;20025;-70
2022/04/22 00:30:25;;;;;;;3.17;1.70;;;;;;;8.83;52.50;101088.56;5048095;28;20082;-70
2022/04/22 00:32:51;;;;;;;3.45;1.98;;;;;;;8.80;52.63;101093.69;5066105;28;20045;-69
2022/04/22 00:35:16;;;;;;;8.48;1.90;;;;;;;8.75;52.82;101092.78;5065748;28;20036;-70
2022/04/22 00:37:43;;;;;;;2.38;1.65;;;;;;;8.72;52.95;101093.59;5066009;28;20080;-70
2022/04/22 00:40:09;;;;;;;3.85;2.15;;;;;;;8.69;53.12;101088.38;5048121;28;20417;-69
2022/04/22 00:42:36;;;;;;;3.22;1.58;;;;;;;8.62;53.29;101094.38;5066312;28;20025;-69
2022/04/22 00:45:02;;;;;;;5.10;1.90;;;;;;;8.52;53.35;101080.41;5048421;28;20028;-70
2022/04/22 00:47:27;;;;;;;3.28;1.70;;;;;;;8.54;53.42;101091.66;5066279;28;20036;-69
2022/04/22 00:49:53;;;;;;;2.78;1.70;;;;;;;8.53;53.36;101097.72;5066504;28;20021;-70
2022/04/22 00:52:19;;;;;;;2.90;1.80;;;;;;;8.48;53.29;101099.38;5066302;28;20581;-70
2022/04/22 00:54:45;;;;;;;2.72;1.48;;;;;;;8.45;53.37;101084.66;5066324;28;20025;-69
2022/04/22 00:57:11;;;;;;;3.28;1.77;;;;;;;8.50;53.42;101088.16;5047866;28;20501;-69
2022/04/22 00:59:37;;;;;;;4.07;1.88;;;;;;;8.46;53.38;101083.81;5048049;28;20029;-69
2022/04/22 01:02:02;;;;;;;2.83;1.60;;;;;;;8.44;53.38;101085.50;5066033;28;20036;-69
2022/04/22 01:09:56;;;;;;;3.05;1.60;;;;;;;8.26;53.45;101083.59;5065735;28;20049;-69
2022/04/22 01:12:22;;;;;;;3.53;1.80;;;;;;;8.28;53.49;101084.47;5065655;28;20025;-69
2022/04/22 01:14:47;;;;;;;2.92;2.13;;;;;;;8.25;53.64;101087.88;5047781;28;20017;-69
2022/04/22 01:17:13;;;;;;;2.40;1.80;;;;;;;8.22;53.74;101084.38;5065522;28;20028;-69
2022/04/22 01:19:39;;;;;;;3.05;1.98;;;;;;;8.18;53.80;101084.34;5065536;28;20040;-69
2022/04/22 01:22:05;;;;;;;11.77;2.15;;;;;;;8.12;54.12;101081.69;5065358;28;20032;-69
2022/04/22 01:24:31;;;;;;;3.50;1.90;;;;;;;8.10;54.35;101077.34;5065524;28;20052;-69
2022/04/22 01:26:58;;;;;;;3.15;1.75;;;;;;;8.02;54.61;101072.94;5065224;28;20051;-69
2022/04/22 01:29:24;;;;;;;2.90;1.80;;;;;;;7.90;54.82;101073.66;5065129;28;20033;-70
2022/04/22 01:31:49;;;;;;;3.33;1.95;;;;;;;7.91;55.03;101067.63;5047365;28;20021;-69
2022/04/22 01:34:15;;;;;;;3.08;1.70;;;;;;;7.83;55.10;101068.41;5065364;28;20024;-72
2022/04/22 01:36:40;;;;;;;2.92;1.63;;;;;;;7.79;55.33;101067.47;5064908;28;20025;-70
2022/04/22 01:39:06;;;;;;;1.95;1.33;;;;;;;7.79;55.64;101064.88;5065275;28;20052;-68
2022/04/22 01:41:31;;;;;;;4.05;2.35;;;;;;;7.76;55.77;101059.69;5065226;28;20056;-68
2022/04/22 01:43:57;;;;;;;4.07;2.22;;;;;;;7.67;55.82;101065.56;5064988;28;20071;-70
2022/04/22 01:46:22;;;;;;;3.15;1.80;;;;;;;7.59;55.80;101055.13;5064926;28;20024;-70
2022/04/22 01:48:48;;;;;;;2.47;1.67;;;;;;;7.55;56.01;101054.22;5064997;28;20029;-69
2022/04/22 01:51:13;;;;;;;4.07;2.42;;;;;;;7.60;56.30;101062.06;5064687;28;20480;-70
2022/04/22 01:53:38;;;;;;;2.35;1.70;;;;;;;7.49;56.50;101056.69;5064940;28;20458;-70
2022/04/22 01:56:04;;;;;;;2.05;1.60;;;;;;;7.47;56.60;101057.53;5064732;28;20063;-71
2022/04/22 01:58:29;;;;;;;3.58;1.75;;;;;;;7.45;56.65;101052.34;5064884;28;20017;-70
2022/04/22 02:00:55;;;;;;;2.53;1.85;;;;;;;7.41;56.94;101060.91;5064767;28;20036;-70
2022/04/22 02:03:20;;;;;;;4.75;2.33;;;;;;;7.30;57.04;101053.00;5064661;28;20487;-70
2022/04/22 02:05:46;;;;;;;4.10;2.10;;;;;;;7.33;57.16;101055.63;5064407;28;20032;-69
2022/04/22 02:08:12;;;;;;;6.03;2.10;;;;;;;7.28;57.26;101052.09;5064544;28;20037;-69
2022/04/22 02:10:38;;;;;;;3.67;2.20;;;;;;;7.21;57.36;101050.25;5064653;28;20031;-69
2022/04/22 02:13:05;;;;;;;3.42;1.98;;;;;;;7.13;57.31;101045.84;5064511;28;20041;-69
2022/04/22 02:15:30;;;;;;;2.50;1.88;;;;;;;7.12;57.40;101050.97;5064449;28;20024;-69
2022/04/22 02:17:55;;;;;;;3.08;2.00;;;;;;;7.12;57.60;101043.22;5064312;28;20029;-69
2022/04/22 02:20:22;;;;;;;6.72;1.90;;;;;;;7.12;57.53;101043.22;5064202;28;20024;-69
2022/04/22 02:22:47;;;;;;;3.30;2.10;;;;;;;7.10;57.71;101038.03;5063551;28;20020;-69
2022/04/22 02:25:13;;;;;;;4.22;1.70;;;;;;;7.06;57.66;101049.19;5064229;28;20061;-69
2022/04/22 02:30:25;;;;;;;2.25;1.70;;;;;;;7.09;57.76;101044.06;5064140;28;20036;-70
2022/04/22 02:32:51;;;;;;;2.25;1.80;;;;;;;7.09;58.01;101041.47;5063542;28;20056;-69
2022/04/22 02:35:19;;;;;;;3.17;2.00;;;;;;;7.00;58.01;101038.72;5045203;28;20028;-69
2022/04/22 02:37:45;;;;;;;3.28;1.67;;;;;;;6.91;58.07;101035.16;5063152;28;20071;-70
2022/04/22 02:40:11;;;;;;;4.28;1.90;;;;;;;6.90;58.13;101037.72;5063224;28;20436;-69
2022/04/22 02:45:29;;;;;;;3.35;2.10;;;;;;;6.86;58.28;101041.94;5063119;28;20083;-69
2022/04/22 02:47:56;;;;;;;2.75;2.20;;;;;;;6.80;58.41;101037.56;5062691;28;20071;-69
2022/04/22 02:50:22;;;;;;;4.25;2.20;;;;;;;6.78;58.63;101034.06;5062824;28;20021;-70
2022/04/22 02:52:48;;;;;;;4.68;2.10;;;;;;;6.74;58.70;101031.41;5062685;28;20032;-70
2022/04/22 02:55:13;;;;;;;5.03;2.10;;;;;;;6.73;58.67;101035.69;5062723;28;20021;-69
2022/04/22 02:57:38;;;;;;;3.90;2.30;;;;;;;6.69;59.08;101034.75;5062873;28;20040;-69
2022/04/22 03:00:05;;;;;;;2.70;1.50;;;;;;;6.61;58.83;101025.16;5044713;28;20031;-69
2022/04/22 03:02:30;;;;;;;5.20;1.98;;;;;;;6.62;59.09;101027.78;5062894;28;20137;-69
2022/04/22 03:04:57;;;;;;;2.92;1.80;;;;;;;6.57;59.23;101022.53;5062524;28;20065;-70
2022/04/22 03:07:23;;;;;;;11.68;2.10;;;;;;;6.57;59.24;101027.69;5062716;28;20040;-70
2022/04/22 03:09:48;;;;;;;2.85;1.67;;;;;;;6.53;59.46;101027.59;5062678;28;20115;-70
2022/04/22 03:12:14;;;;;;;3.67;2.13;;;;;;;6.55;59.63;101026.78;5062704;28;20025;-70
2022/04/22 03:14:40;;;;;;;3.53;2.17;;;;;;;6.50;59.85;101019.81;5062512;28;20017;-70
2022/04/22 03:17:06;;;;;;;2.75;2.00;;;;;;;6.48;59.99;101021.47;5062377;28;20089;-70
2022/04/22 03:19:31;;;;;;;3.05;1.70;;;;;;;6.50;59.85;101023.25;5062643;28;20028;-70
2022/04/22 03:21:58;;;;;;;3.50;2.33;;;;;;;6.50;60.14;101017.25;5062340;28;20031;-70
2022/04/22 03:24:23;;;;;;;4.22;2.85;;;;;;;6.44;60.12;101017.97;5060794;28;20024;-70
2022/04/22 03:26:49;;;;;;;2.85;2.20;;;;;;;6.41;60.34;101020.50;5062246;28;20029;-70
2022/04/22 03:29:14;;;;;;;5.45;2.13;;;;;;;6.34;60.45;101024.69;5061952;28;20029;-70
2022/04/22 03:31:40;;;;;;;2.78;1.98;;;;;;;6.38;60.65;101017.88;5062053;28;20020;-71
2022/04/22 03:34:05;;;;;;;3.30;2.20;;;;;;;6.40;60.57;101021.34;5055553;28;159746;-71
2022/04/22 03:36:31;;;;;;;4.65;1.98;;;;;;;6.31;60.97;101020.31;5062027;28;20044;-72
2022/04/22 03:38:56;;;;;;;5.45;2.30;;;;;;;6.24;60.92;101025.34;5045001;28;20032;-71
2022/04/22 03:41:21;;;;;;;3.72;2.33;;;;;;;6.22;61.08;101016.69;5062874;28;20028;-71
2022/04/22 03:43:47;;;;;;;4.63;1.90;;;;;;;6.20;61.08;101020.13;5044771;28;20173;-70
2022/04/22 03:46:13;;;;;;;3.55;2.40;;;;;;;6.22;61.19;101025.31;5044570;28;20025;-71
2022/04/22 03:48:39;;;;;;;3.88;2.15;;;;;;;6.16;61.13;101023.50;5062522;28;20025;-71
2022/04/22 03:51:05;;;;;;;3.55;2.25;;;;;;;6.23;61.14;101023.59;5044658;28;20035;-69
2022/04/22 03:53:31;;;;;;;3.60;2.13;;;;;;;6.19;61.44;101025.25;5062977;28;20088;-69
2022/04/22 03:58:10;;;;;;;3.08;2.28;;;;;;;6.16;61.42;101015.75;5062527;28;20021;-70
2022/04/22 03:58:41;;;;;;;3.35;1.90;;;;;;;6.25;61.47;101027.06;5062596;28;20051;-70
2022/04/22 04:01:07;;;;;;;3.33;1.60;;;;;;;6.27;61.56;101025.41;5062507;28;20465;-69
2022/04/22 04:03:32;;;;;;;2.35;1.73;;;;;;;6.25;61.51;101024.50;5062588;28;20028;-69
2022/04/22 04:05:57;;;;;;;2.85;1.83;;;;;;;6.26;61.51;101026.25;5062621;28;20093;-69
2022/04/22 04:08:24;;;;;;;3.05;1.95;;;;;;;6.20;61.50;101014.09;5062658;28;20162;-72
2022/04/22 04:16:18;;;;;;;2.85;1.80;;;;;;;6.26;61.54;101018.50;5062722;28;20031;-71
2022/04/22 04:18:44;;;;;;;3.53;1.55;;;;;;;6.50;61.22;101020.66;5062309;28;20049;-69
2022/04/22 04:23:56;;;;;;;2.53;1.98;;;;;;;6.73;61.06;101011.59;5062364;28;20029;-69
2022/04/22 04:26:24;;;;;;;2.92;1.85;;;;;;;7.05;60.52;101011.28;5062263;28;20079;-70
2022/04/22 04:28:50;;;;;;;3.67;2.03;;;;;;;7.43;59.98;101010.09;5062294;28;20036;-72
2022/04/22 04:31:16;;;;;;;2.70;1.88;;;;;;;7.76;59.05;101026.06;5044531;28;20021;-71
2022/04/22 04:33:42;;;;;;;2.67;1.75;;;;;;;8.08;58.33;101019.56;5062474;28;20049;-71
2022/04/22 04:36:12;;;;;;;2.70;1.90;;;;;;;8.33;56.84;101017.25;5062073;28;20065;-70
2022/04/22 04:38:38;;;;;;;3.45;1.90;;;;;;;8.58;56.34;101026.16;5062481;28;20040;-69
2022/04/22 04:41:06;;;;;;;4.40;1.40;;;;;;;8.70;55.60;101016.78;5062192;28;20020;-71
2022/04/22 04:43:32;;;;;;;4.93;1.80;;;;;;;8.89;54.97;101023.00;5062076;28;20108;-70
2022/04/22 04:45:58;;;;;;;2.80;1.58;;;;;;;8.99;54.27;101029.13;5062594;28;20017;-70
2022/04/22 04:48:23;;;;;;;2.28;1.58;;;;;;;9.21;53.69;101003.38;5065834;28;20024;-70
2022/04/22 04:50:52;;;;;;;3.35;1.48;;;;;;;9.42;53.13;101011.28;5065717;28;20020;-71
2022/04/22 04:53:19;;;;;;;4.70;2.00;;;;;;;9.54;52.87;101010.50;5065922;28;20080;-69
2022/04/22 04:55:46;;;;;;;2.60;1.75;;;;;;;9.67;52.54;101011.44;5065284;28;20028;-69
2022/04/22 04:58:11;;;;;;;7.32;1.63;;;;;;;9.86;51.82;101011.50;5065455;28;20033;-71
2022/04/22 05:00:36;;;;;;;4.15;1.70;;;;;;;10.02;51.22;101006.38;5064307;28;20017;-72
2022/04/22 05:03:02;;;;;;;3.45;1.48;;;;;;;9.99;50.91;100996.88;5065460;28;20049;-73
2022/04/22 05:05:30;;;;;;;5.03;1.75;;;;;;;10.12;50.41;101008.16;5065373;28;20476;-71
2022/04/22 05:08:01;;;;;;;2.72;1.67;;;;;;;10.16;50.73;101006.41;5065384;28;20025;-72
2022/04/22 05:10:29;;;;;;;4.50;1.75;;;;;;;10.16;50.64;101004.69;5064203;28;20460;-69
2022/04/22 05:12:55;;;;;;;1.95;1.42;;;;;;;10.36;49.85;101009.09;5065188;28;20025;-70
2022/04/22 05:15:24;;;;;;;2.53;1.58;;;;;;;10.43;49.79;101009.97;5065379;28;20025;-70
2022/04/22 05:17:51;;;;;;;3.83;1.55;;;;;;;10.60;49.63;100999.66;5065027;28;20025;-70
2022/04/22 05:20:21;;;;;;;3.20;1.65;;;;;;;10.90;48.39;101003.13;5065079;28;20029;-69
2022/04/22 05:22:47;;;;;;;4.28;1.70;;;;;;;10.90;47.94;101004.84;5063781;28;20021;-69
2022/04/22 05:25:14;;;;;;;2.47;1.73;;;;;;;10.90;48.15;101005.72;5065264;28;20075;-69
2022/04/22 05:27:40;;;;;;;3.47;1.60;;;;;;;11.02;48.10;101014.38;5065228;28;20021;-69
2022/04/22 05:32:51;;;;;;;1.95;1.52;;;;;;;11.21;47.53;101010.03;5065074;28;20056;-72
2022/04/22 05:35:18;;;;;;;3.00;1.48;;;;;;;11.37;47.26;101007.41;5047110;28;20029;-72
2022/04/22 05:37:52;;;;;;;2.92;1.92;;;;;;;11.56;46.80;101005.63;5047111;28;20017;-71
2022/04/22 05:40:22;;;;;;;5.97;1.77;;;;;;;11.55;46.78;101010.81;5064689;28;20028;-71
2022/04/22 05:42:49;;;;;;;3.00;1.70;;;;;;;11.61;46.22;101014.25;5065066;28;20108;-72
2022/04/22 05:45:16;;;;;;;4.75;1.85;;;;;;;11.59;46.52;101013.41;5047040;28;20047;-71
2022/04/22 05:47:41;;;;;;;2.20;1.60;;;;;;;11.69;46.44;101010.78;5064253;28;20385;-73
2022/04/22 05:50:10;;;;;;;4.18;2.05;;;;;;;11.79;46.29;101017.66;5064526;28;20025;-72
2022/04/22 05:52:40;;;;;;;2.55;1.70;;;;;;;11.93;45.89;101008.94;5064495;28;20025;-72
2022/04/22 05:55:08;;;;;;;2.75;1.70;;;;;;;11.95;45.28;101013.25;5064414;28;20025;-72
2022/04/22 05:57:35;;;;;;;2.92;1.95;;;;;;;11.78;45.77;101008.13;5063626;28;20043;-74
2022/04/22 06:00:05;;;;;;;2.17;1.30;;;;;;;11.93;45.37;100999.41;5064189;28;20039;-74
2022/04/22 06:02:31;;;;;;;2.70;1.85;;;;;;;11.95;45.42;100986.41;5064256;28;20029;-73
2022/04/22 06:04:56;;;;;;;4.50;1.95;;;;;;;12.20;45.05;100991.50;5064396;28;20071;-72
2022/04/22 06:07:21;;;;;;;2.50;1.50;;;;;;;12.29;44.54;101004.47;5046233;28;20310;-73
2022/04/22 06:12:31;;;;;;;4.15;2.45;;;;;;;12.44;44.20;100998.31;5064381;28;20090;-70
2022/04/22 06:14:59;;;;;;;4.13;1.70;;;;;;;12.37;43.93;100989.66;5064108;28;20024;-73
2022/04/22 06:17:27;;;;;;;3.67;2.30;;;;;;;12.31;44.28;100994.03;5045737;28;20029;-72
2022/04/22 06:19:52;;;;;;;2.85;1.77;;;;;;;12.41;43.76;101000.06;5063969;28;20021;-71
2022/04/22 06:22:18;;;;;;;2.42;1.58;;;;;;;12.37;43.95;100983.56;5063715;28;20106;-72
2022/04/22 06:24:43;;;;;;;4.43;1.55;;;;;;;12.30;43.95;100974.94;5063841;28;20036;-72
2022/04/22 06:27:09;;;;;;;3.28;1.65;;;;;;;12.33;44.17;100984.47;5063762;28;20021;-71
2022/04/22 06:29:35;;;;;;;3.95;1.98;;;;;;;12.59;44.02;100988.63;5063875;28;20021;-71
2022/04/22 06:32:02;;;;;;;2.42;1.80;;;;;;;12.74;43.36;100983.31;5063706;28;20036;-72
2022/04/22 06:34:27;;;;;;;1.80;1.48;;;;;;;12.77;43.27;100974.59;5062268;28;20047;-72
2022/04/22 06:36:53;;;;;;;2.88;1.65;;;;;;;12.79;43.39;100982.41;5045410;28;20021;-72
2022/04/22 06:39:18;;;;;;;5.35;2.00;;;;;;;12.80;43.30;100971.97;5063581;28;20017;-71
2022/04/22 06:47:12;;;;;;;2.35;1.30;;;;;;;12.83;42.99;100966.72;5063668;28;20054;-72
2022/04/22 06:49:38;;;;;;;2.00;1.33;;;;;;;12.93;42.71;100969.25;5063651;28;20028;-72
2022/04/22 06:52:05;;;;;;;2.08;1.42;;;;;;;12.97;42.07;100965.75;5063191;28;20024;-71
2022/04/22 06:54:31;;;;;;;3.78;1.70;;;;;;;12.82;42.21;100958.94;5045277;28;20081;-71
2022/04/22 06:56:57;;;;;;;1.60;1.40;;;;;;;12.86;42.04;100971.91;5063184;28;20029;-73
2022/04/22 06:59:23;;;;;;;2.40;1.73;;;;;;;12.86;42.21;100961.50;5063496;28;20366;-72
2022/04/22 07:01:48;;;;;;;2.95;1.50;;;;;;;12.79;42.31;100961.56;5063403;28;20039;-73
2022/04/22 07:04:14;;;;;;;3.30;1.20;;;;;;;12.97;41.86;100971.81;5063107;28;20017;-73
2022/04/22 07:06:44;;;;;;;3.63;1.38;;;;;;;13.17;41.85;100960.34;5045186;28;20025;-73
2022/04/22 07:09:12;;;;;;;3.72;1.58;;;;;;;13.44;41.25;100971.34;5063192;28;20029;-73
2022/04/22 07:11:42;;;;;;;3.75;1.52;;;;;;;13.60;40.56;100963.38;5062972;28;20089;-72
2022/04/22 07:14:08;;;;;;;1.63;1.05;;;;;;;13.68;40.53;100953.69;5063070;28;20040;-72
2022/04/22 07:16:33;;;;;;;5.10;1.50;;;;;;;13.90;40.57;100963.84;5062954;28;20271;-73
2022/04/22 07:18:59;;;;;;;2.25;1.38;;;;;;;14.19;39.88;100956.50;5061616;28;20059;-73
2022/04/22 07:21:26;;;;;;;3.28;1.67;;;;;;;14.47;39.21;100956.09;5062872;28;20017;-74
2022/04/22 07:23:53;;;;;;;1.95;1.35;;;;;;;14.53;38.80;100956.00;5062821;28;20021;-73
2022/04/22 07:26:20;;;;;;;2.92;1.60;;;;;;;14.70;38.69;100942.63;5062845;28;20047;-74
2022/04/22 07:28:49;;;;;;;8.13;1.25;;;;;;;14.81;38.26;100959.94;5062926;28;20423;-73
2022/04/22 07:31:16;;;;;;;3.33;1.45;;;;;;;14.81;38.12;100949.47;5062806;28;20033;-73
2022/04/22 07:33:41;;;;;;;2.90;1.33;;;;;;;14.83;37.79;100952.91;5062654;28;20052;-73
2022/04/22 07:36:07;;;;;;;2.97;1.48;;;;;;;14.87;37.80;100938.91;5062760;28;20052;-72
2022/04/22 07:38:33;;;;;;;2.30;1.20;;;;;;;14.87;37.38;100944.97;5062869;28;20107;-72
2022/04/22 07:40:58;;;;;;;1.45;1.23;;;;;;;15.05;37.28;100953.38;5061544;28;20455;-73
2022/04/22 07:48:55;;;;;;;1.60;1.20;;;;;;;15.29;36.23;100956.44;5062844;28;20031;-73
2022/04/22 07:51:23;;;;;;;4.00;0.90;;;;;;;15.17;36.49;100940.97;5062647;28;20025;-73
2022/04/22 07:53:49;;;;;;;2.28;1.30;;;;;;;15.23;36.68;100933.00;5063014;28;20420;-74
2022/04/22 07:56:14;;;;;;;3.70;0.98;;;;;;;15.57;36.03;100944.56;5062917;28;20062;-73
2022/04/22 07:58:39;;;;;;;2.63;0.98;;;;;;;15.88;35.65;100943.03;5062451;28;20052;-73
2022/04/22 08:01:05;;;;;;;4.70;1.63;;;;;;;16.14;34.80;100936.38;5062834;28;20353;-73
2022/04/22 08:03:31;;;;;;;1.35;0.95;;;;;;;16.12;34.98;100943.41;5044699;28;20085;-74
2022/04/22 08:05:57;;;;;;;1.80;1.20;;;;;;;16.26;34.98;100932.59;5044432;28;20071;-73
2022/04/22 08:08:22;;;;;;;2.15;1.50;;;;;;;16.28;34.63;100925.59;5044694;28;20029;-73
2022/04/22 08:10:48;;;;;;;6.07;1.45;;;;;;;16.49;34.69;100924.19;5062688;28;20472;-74
2022/04/22 08:13:15;;;;;;;1.73;0.90;;;;;;;16.70;33.81;100928.03;5044649;28;20112;-73
2022/04/22 08:15:40;;;;;;;1.55;1.00;;;;;;;16.73;33.56;100927.94;5062596;28;20032;-72
2022/04/22 08:18:06;;;;;;;1.73;0.85;;;;;;;16.91;33.23;100933.59;5062319;28;20025;-72
2022/04/22 08:20:33;;;;;;;2.35;1.23;;;;;;;16.71;33.19;100911.38;5062044;28;20029;-70
2022/04/22 08:22:59;;;;;;;1.63;0.90;;;;;;;16.88;33.37;100917.09;5047771;28;20037;-71
2022/04/22 08:25:24;;;;;;;2.03;1.00;;;;;;;17.08;33.13;100921.81;5066674;28;20021;-71
2022/04/22 08:27:51;;;;;;;2.90;1.45;;;;;;;17.44;32.45;100924.28;5066338;28;20100;-70
2022/04/22 08:30:17;;;;;;;1.75;1.10;;;;;;;17.50;32.09;100928.53;5066323;28;20465;-73
2022/04/22 08:32:42;;;;;;;2.55;0.77;;;;;;;17.68;30.89;100937.59;5065805;28;20064;-71
2022/04/22 08:35:08;;;;;;;2.72;1.10;;;;;;;17.38;30.28;100934.97;5048025;28;20049;-70
2022/04/22 08:37:33;;;;;;;1.35;1.00;;;;;;;17.30;30.77;100929.09;5065985;28;20024;-73
2022/04/22 08:39:59;;;;;;;2.53;1.00;;;;;;;17.29;31.11;100925.63;5066057;28;20036;-73
2022/04/22 08:42:25;;;;;;;1.35;0.80;;;;;;;17.36;29.61;100925.44;5065877;28;20077;-72
2022/04/22 08:44:53;;;;;;;2.47;1.10;;;;;;;17.12;30.24;100914.72;5065714;28;20492;-73
2022/04/22 08:50:13;;;;;;;1.77;1.35;;;;;;;17.01;29.91;100921.13;5065615;28;20040;-72
2022/04/22 08:52:41;;;;;;;1.25;1.00;;;;;;;17.12;30.10;100933.97;5047424;28;20028;-73
2022/04/22 08:55:07;;;;;;;1.00;0.70;;;;;;;17.54;29.22;100909.13;5065780;28;20085;-73
2022/04/22 08:57:33;;;;;;;3.55;1.10;;;;;;;17.53;28.67;100923.19;5065537;28;20027;-72
2022/04/22 09:00:09;;;;;;;1.52;0.90;;;;;;;17.54;28.57;100930.13;5065509;28;20028;-72
2022/04/22 09:02:35;;;;;;;3.83;0.80;;;;;;;17.57;28.32;100911.66;5065551;28;20036;-73
2022/04/22 09:05:01;;;;;;;2.90;0.90;;;;;;;17.93;27.36;100904.50;5065281;28;20084;-71
2022/04/22 09:07:28;;;;;;;1.98;0.98;;;;;;;18.20;26.20;100928.19;5063731;28;20461;-71
2022/04/22 09:09:54;;;;;;;3.00;1.00;;;;;;;17.98;26.78;100918.34;5065240;28;20492;-72
2022/04/22 09:12:24;;;;;;;2.47;0.60;;;;;;;18.06;25.84;100910.22;5065280;28;20060;-72
2022/04/22 09:14:52;;;;;;;2.90;1.05;;;;;;;17.86;26.66;100911.69;5047074;28;20024;-73
2022/04/22 09:17:29;;;;;;;1.92;1.13;;;;;;;18.30;26.59;100897.22;5065230;28;20021;-72
2022/04/22 09:19:57;;;;;;;2.22;1.10;;;;;;;18.56;25.84;100909.47;5065172;28;20021;-72
2022/04/22 09:22:27;;;;;;;2.55;0.90;;;;;;;18.82;24.80;100902.47;5065143;28;20024;-73
2022/04/22 09:24:55;;;;;;;5.57;1.00;;;;;;;18.67;24.35;100889.84;5065396;28;20477;-73
2022/04/22 09:27:33;;;;;;;3.40;0.75;;;;;;;18.77;24.90;100888.59;5065275;28;20024;-74
2022/04/22 09:30:00;;;;;;;7.22;1.70;;;;;;;18.94;23.93;100908.22;5065378;28;20390;-72
2022/04/22 09:32:33;;;;;;;1.20;0.82;;;;;;;19.17;23.94;100870.56;5064654;28;20044;-71
2022/04/22 09:35:23;;;;;;;1.85;1.00;;;;;;;19.25;24.75;100907.13;5064870;28;20021;-71
2022/04/22 09:43:25;;;;;;;1.92;0.93;;;;;;;19.40;23.80;100889.03;5064795;28;20050;-71
2022/04/22 09:45:52;;;;;;;1.95;0.70;;;;;;;19.38;22.98;100888.22;5064845;28;20074;-72
2022/04/22 09:48:20;;;;;;;4.32;0.95;;;;;;;19.37;22.87;100883.88;5064606;28;20017;-73
2022/04/22 09:50:54;;;;;;;2.28;0.80;;;;;;;19.54;22.11;100881.47;5064505;28;20025;-70
2022/04/22 09:53:33;;;;;;;2.05;1.02;;;;;;;19.18;22.14;100881.94;5046455;28;20017;-72
2022/04/22 09:56:05;;;;;;;1.33;0.80;;;;;;;18.98;22.51;100886.13;5064718;28;20108;-71
2022/04/22 09:58:31;;;;;;;2.17;1.02;;;;;;;19.09;22.84;100919.97;5064516;28;20017;-70
2022/04/22 10:01:01;;;;;;;3.38;1.05;;;;;;;19.02;22.76;100881.63;5046096;28;20021;-70
2022/04/22 10:03:29;;;;;;;0.80;0.60;;;;;;;18.82;23.86;100870.91;5046289;28;20025;-71
2022/04/22 10:05:55;;;;;;;4.55;1.00;;;;;;;19.17;24.32;100874.97;5064285;28;20380;-71
2022/04/22 10:08:24;;;;;;;1.48;0.90;;;;;;;19.18;25.37;100863.53;5064131;28;20025;-71
2022/04/22 10:10:53;;;;;;;1.58;1.00;;;;;;;19.33;25.31;100859.44;5064116;28;20039;-72
2022/04/22 10:13:22;;;;;;;2.60;1.13;;;;;;;19.65;24.52;100845.97;5064139;28;20024;-72
2022/04/22 10:15:48;;;;;;;1.58;0.88;;;;;;;19.76;24.92;100833.19;5064276;28;20025;-72
2022/04/22 10:18:15;;;;;;;1.67;0.70;;;;;;;19.85;24.65;100847.78;5063877;28;20163;-73
2022/04/22 10:20:41;;;;;;;2.95;1.00;;;;;;;19.88;25.23;100849.44;5063681;28;20017;-72
2022/04/22 10:23:06;;;;;;;1.42;0.50;;;;;;;20.21;24.65;100842.88;5062386;28;20044;-72
2022/04/22 10:25:32;;;;;;;0.93;0.50;;;;;;;20.07;24.61;100841.66;5064141;28;20029;-74
2022/04/22 10:28:01;;;;;;;1.73;0.80;;;;;;;19.80;24.81;100850.63;5064088;28;20314;-74
2022/04/22 10:30:28;;;;;;;5.85;1.15;;;;;;;19.68;24.89;100851.94;5063954;28;20051;-72
2022/04/22 10:32:54;;;;;;;1.48;0.90;;;;;;;19.59;25.00;100851.44;5063471;28;20055;-72
2022/04/22 10:35:23;;;;;;;1.65;0.82;;;;;;;19.69;25.03;100858.97;5045819;28;20082;-73
2022/04/22 10:37:49;;;;;;;2.60;1.15;;;;;;;19.48;25.07;100838.72;5063457;28;20107;-72
2022/04/22 10:40:20;;;;;;;0.95;0.60;;;;;;;19.49;25.39;100850.97;5063944;28;20053;-72
2022/04/22 10:42:47;;;;;;;2.60;1.30;;;;;;;19.55;25.51;100842.84;5045557;28;20021;-72
2022/04/22 10:47:57;;;;;;;2.35;1.00;;;;;;;20.48;24.25;100845.25;5063480;28;20032;-72
2022/04/22 10:50:33;;;;;;;2.92;1.00;;;;;;;20.33;24.04;100837.09;5063500;28;20028;-72
2022/04/22 10:53:03;;;;;;;1.40;0.95;;;;;;;19.93;24.84;100819.38;5063500;28;20104;-72
2022/04/22 10:55:40;;;;;;;2.47;1.00;;;;;;;19.92;24.63;100822.91;5063551;28;20025;-73
2022/04/22 10:58:21;;;;;;;1.88;1.10;;;;;;;19.75;24.81;100817.47;5045473;28;20028;-72
2022/04/22 11:00:48;;;;;;;1.45;0.88;;;;;;;19.78;24.53;100831.38;5063524;28;20190;-71
2022/04/22 11:03:19;;;;;;;1.42;0.93;;;;;;;19.64;24.78;100831.06;5063436;28;20048;-72
2022/04/22 11:06:00;;;;;;;1.92;0.93;;;;;;;19.59;24.81;100823.34;5063124;28;20357;-72
2022/04/22 11:08:38;;;;;;;1.60;1.07;;;;;;;19.89;24.13;100823.03;5044936;28;20397;-73
2022/04/22 11:11:17;;;;;;;1.30;0.80;;;;;;;20.38;23.56;100835.13;5063245;28;20028;-73
2022/04/22 11:13:48;;;;;;;1.88;0.98;;;;;;;20.55;23.53;100810.63;5063078;28;20388;-72
2022/04/22 11:16:15;;;;;;;1.60;1.00;;;;;;;20.63;23.11;100815.56;5063119;28;20028;-73
2022/04/22 11:18:43;;;;;;;1.42;0.95;;;;;;;20.86;23.20;100799.63;5063215;28;20032;-71
2022/04/22 11:21:15;;;;;;;1.88;1.10;;;;;;;21.14;22.18;100828.28;5044741;28;20032;-73
2022/04/22 11:23:42;;;;;;;;;;;;;;;20.89;21.42;100818.81;5063487;28;20067;-72
2022/04/22 11:26:12;;;;;;;1.17;0.82;;;;;;;19.46;22.74;100820.34;5063167;28;19916;-72
2022/04/22 11:28:39;;;;;;;1.30;0.80;;;;;;;18.52;24.02;100807.09;5062786;28;20021;-71
2022/04/22 11:31:07;;;;;;;2.55;1.00;;;;;;;17.89;24.99;100803.91;5062904;28;20054;-73
2022/04/22 11:34:03;;;;;;;2.00;1.17;;;;;;;17.39;26.14;100808.13;5062817;28;20045;-73
2022/04/22 11:36:28;;;;;;;2.15;0.90;;;;;;;17.33;26.61;100819.66;5062545;28;20024;-75
2022/04/22 11:38:55;;;;;;;1.23;0.75;;;;;;;17.03;26.91;100814.38;5062661;28;20388;-72
2022/04/22 11:41:22;;;;;;;2.65;1.30;;;;;;;16.97;27.06;100804.06;5063190;28;20077;-73
2022/04/22 11:43:47;;;;;;;2.22;1.20;;;;;;;16.79;27.70;100792.34;5062574;28;20082;-72
2022/04/22 11:46:14;;;;;;;1.88;1.25;;;;;;;16.67;27.89;100796.16;5062566;28;20029;-71
2022/04/22 11:48:53;;;;;;;2.63;1.20;;;;;;;16.75;27.93;100803.81;5062605;28;20020;-72
2022/04/22 11:51:19;;;;;;;1.92;1.17;;;;;;;16.57;28.34;100800.78;5044355;28;20048;-72
2022/04/22 11:53:46;;;;;;;2.47;1.27;;;;;;;16.73;28.42;100801.22;5044872;28;20044;-72
2022/04/22 11:56:17;;;;;;;1.75;0.90;;;;;;;16.80;28.32;100797.56;5061751;28;20465;-72
2022/04/22 11:58:42;;;;;;;2.03;1.00;;;;;;;16.82;28.12;100806.22;5066536;28;20029;-72
2022/04/22 12:06:38;;;;;;;4.22;2.08;;;;;;;16.60;28.70;100790.22;5066380;28;20231;-72
2022/04/22 12:09:05;;;;;;;1.48;1.17;;;;;;;16.60;28.73;100790.22;5064803;28;20097;-72
2022/04/22 12:11:39;;;;;;;1.55;1.00;;;;;;;16.53;28.97;100779.06;5066615;28;20032;-72
2022/04/22 12:14:04;;;;;;;6.15;1.20;;;;;;;16.46;29.26;100786.25;5066458;28;20027;-72
2022/04/22 12:16:30;;;;;;;2.55;1.50;;;;;;;16.41;29.71;100775.00;5066522;28;20080;-73
2022/04/22 12:18:56;;;;;;;3.00;1.23;;;;;;;16.63;29.66;100791.91;5066495;28;20166;-73
2022/04/22 12:21:23;;;;;;;1.98;1.17;;;;;;;16.64;29.46;100785.75;5066151;28;20032;-71
2022/04/22 12:23:51;;;;;;;2.90;1.40;;;;;;;16.66;29.85;100768.25;5048247;28;20035;-72